Flight Track Log - Related Links

Times and Time Zones

All times are in EDT time to prevent confusion due to time zone crossing. See the DAL268 flight status page for this flight to view local times or setup timezone preferences in your user account.

Time Position Orientation Groundspeed Altitude Reporting Facility
EDT Latitude Longitude Course Direction KTS km/h feet Rate Location/Type
Fri 21:26:20 40.6760 -73.8140 270° West 115 212  Level FlightAware ADS-B
Fri 21:26:41 40.6680 -73.7970 122° Southeast 175 323 585 Level FlightAware ADS-B
Fri 21:27:01 40.6600 -73.7770 118° Southeast 180 333 400 1.500 Climbing FlightAware ADS-B
Fri 21:27:17 40.6530 -73.7640 125° Southeast 176 327 900 1.500 Climbing FlightAware ADS-B
Fri 21:27:37 40.6410 -73.7490 137° Southeast 183 340 1.300 900 Climbing FlightAware ADS-B
Fri 21:27:57 40.6260 -73.7330 141° Southeast 209 388 1.500 833 Climbing FlightAware ADS-B
Fri 21:28:13 40.6150 -73.7180 134° Southeast 224 415 1.800 1.071 Climbing FlightAware ADS-B
Fri 21:28:25 40.6080 -73.7030 122° Southeast 239 443 2.000 750 Climbing FlightAware ADS-B
Fri 21:28:45 40.6020 -73.6760 106° East 259 480 2.200 1.317 Climbing FlightAware ADS-B
Fri 21:29:06 40.5940 -73.6410 107° East 272 504 2.900 1.909 Climbing FlightAware ADS-B
Fri 21:29:29 40.5850 -73.6060 109° East 283 525 3.600 2.233 Climbing FlightAware ADS-B
Fri 21:29:49 40.5760 -73.5720 109° East 289 536 4.500 2.550 Climbing FlightAware ADS-B
Fri 21:30:09 40.5670 -73.5380 109° East 293 542 5.300 2.400 Climbing FlightAware ADS-B
Fri 21:30:29 40.5580 -73.5040 109° East 298 552 6.100 2.400 Climbing FlightAware ADS-B
Fri 21:30:49 40.5490 -73.4690 109° East 302 560 6.900 2.348 Climbing FlightAware ADS-B
Fri 21:31:15 40.5360 -73.4250 111° Southeast 306 566 7.900 2.348 Climbing FlightAware ADS-B
Fri 21:31:35 40.5270 -73.3910 109° East 309 573 8.700 2.400 Climbing FlightAware ADS-B
Fri 21:31:55 40.5180 -73.3530 107° East 313 579 9.500 2.143 Climbing FlightAware ADS-B
Fri 21:32:31 40.5000 -73.2870 110° East 325 602 10.700 1.412 Climbing FlightAware ADS-B
Fri 21:33:03 40.4830 -73.2230 109° East 357 661 11.100 882 Climbing FlightAware ADS-B
Fri 21:33:39 40.4640 -73.1480 108° East 386 715 11.700 1.167 Climbing FlightAware ADS-B
Fri 21:34:15 40.4420 -73.0660 109° East 409 758 12.500 1.345 Climbing FlightAware ADS-B
Fri 21:34:37 40.4310 -73.0110 105° East 421 779 13.000 1.680 Climbing FlightAware ADS-B
Fri 21:35:05 40.4350 -72.9420 86° East 427 790 13.900 1.900 Climbing FlightAware ADS-B
Fri 21:35:37 40.4530 -72.8590 74° East 437 810 14.900 1.886 Climbing FlightAware ADS-B
Fri 21:36:15 40.4750 -72.7630 73° East 443 821 16.100 1.800 Climbing FlightAware ADS-B
Fri 21:36:47 40.4950 -72.6780 73° East 451 835 17.000 1.658 Climbing FlightAware ADS-B
Fri 21:37:31 40.5210 -72.5630 73° East 458 848 18.200 1.725 Climbing FlightAware ADS-B
Fri 21:38:07 40.5420 -72.4690 74° East 460 851 19.300 1.714 Climbing FlightAware ADS-B
Fri 21:38:48 40.5670 -72.3550 74° East 465 861 20.400 1.440 Climbing FlightAware ADS-B
Fri 21:39:22 40.5870 -72.2640 74° East 470 871 21.100 1.373 Climbing FlightAware ADS-B
Fri 21:40:11 40.6170 -72.1260 74° East 474 877 22.300 1.465 Climbing FlightAware ADS-B
Fri 21:40:48 40.6400 -72.0240 73° East 476 882 23.200 1.333 Climbing FlightAware ADS-B
Fri 21:41:23 40.6600 -71.9280 75° East 478 885 23.900 1.254 Climbing FlightAware ADS-B
Fri 21:41:55 40.6810 -71.8370 73° East 482 893 24.600 1.043 Climbing FlightAware ADS-B
Fri 21:42:32 40.7040 -71.7300 74° East 488 904 25.100 892 Climbing FlightAware ADS-B
Fri 21:43:09 40.7260 -71.6250 75° East 492 911 25.700 1.130 Climbing FlightAware ADS-B
Fri 21:43:41 40.7460 -71.5310 74° East 491 909 26.400 1.455 Climbing FlightAware ADS-B
Fri 21:44:15 40.7670 -71.4340 74° East 484 896 27.300 1.569 Climbing FlightAware ADS-B
Fri 21:44:46 40.7890 -71.3470 72° East 481 892 28.100 1.371 Climbing FlightAware ADS-B
Fri 21:45:25 40.8240 -71.2430 66° East 480 888 28.900 1.200 Climbing FlightAware ADS-B
Fri 21:46:01 40.8580 -71.1470 65° Northeast 477 884 29.600 1.151 Climbing FlightAware ADS-B
Fri 21:46:38 40.8920 -71.0520 65° Northeast 472 874 30.300 1.200 Climbing FlightAware ADS-B
Fri 21:47:11 40.9230 -70.9650 65° Northeast 469 869 31.000 600 Climbing FlightAware ADS-B
Fri 21:47:48 40.9580 -70.8680 64° Northeast 469 869 31.000  Level FlightAware ADS-B
Fri 21:48:23 40.9880 -70.7820 65° Northeast 468 867 31.000  Level FlightAware ADS-B
Fri 21:48:55 41.0190 -70.6950 65° Northeast 466 863 31.000  Level FlightAware ADS-B
Fri 21:49:32 41.0530 -70.6010 64° Northeast 467 864 31.000  Level FlightAware ADS-B
Fri 21:50:05 41.0820 -70.5170 65° Northeast 350 649 31.000  Level FlightAware ADS-B
Fri 21:50:48 41.1220 -70.4050 65° Northeast 468 867 31.000  Level FlightAware ADS-B
Fri 21:51:22 41.1520 -70.3170 66° East 469 869 31.000  Level FlightAware ADS-B
Fri 21:52:00 41.1820 -70.2330 65° Northeast 469 869 31.000  Level FlightAware ADS-B
Fri 21:52:48 41.2280 -70.0970 66° East 472 874 31.000  Level FlightAware ADS-B
Fri 21:53:24 41.2570 -70.0170 64° Northeast 472 874 31.000  Level FlightAware ADS-B
Fri 21:54:00 41.2850 -69.9360 65° Northeast 472 874 31.000  Level FlightAware ADS-B
Fri 21:54:36 41.3130 -69.8560 65° Northeast 472 874 31.000  Level FlightAware ADS-B
Fri 21:55:12 41.3410 -69.7750 65° Northeast 472 874 31.000  Level FlightAware ADS-B
Fri 21:55:48 41.3690 -69.6940 65° Northeast 472 874 31.000  Level FlightAware ADS-B
Fri 21:57:04 41.4000 -69.4167 65° Northeast 480 888 31.000  Level Moncton Center
Fri 22:02:43 41.7410 -68.5660 65° Northeast 480 888 31.000  Level FlightAware ADS-B
Fri 22:03:19 41.7690 -68.4830 66° East 480 888 31.000  Level FlightAware ADS-B
Fri 22:03:55 41.7960 -68.3990 67° East 480 888 31.000  Level FlightAware ADS-B
Fri 22:04:31 41.8240 -68.3160 66° East 480 888 31.000  Level FlightAware ADS-B
Fri 22:05:07 41.8520 -68.2330 66° East 480 888 31.000  Level FlightAware ADS-B
Fri 22:05:43 41.8790 -68.1490 67° East 480 888 31.000  Level FlightAware ADS-B
Fri 22:06:19 41.9070 -68.0660 66° East 480 888 31.000  Level FlightAware ADS-B
Fri 22:06:55 41.9340 -67.9820 67° East 480 888 31.000  Level FlightAware ADS-B
Fri 22:07:31 41.9620 -67.8990 66° East 480 888 31.000  Level FlightAware ADS-B
Fri 22:08:08 41.9900 -67.8130 66° East 480 888 31.000  Level FlightAware ADS-B
Fri 22:08:44 42.0180 -67.7300 66° East 480 888 31.000  Level FlightAware ADS-B
Fri 22:09:20 42.0460 -67.6460 66° East 480 888 31.000  Level FlightAware ADS-B
Fri 22:10:45 42.1840 -67.1550 69° East 493 912 31.000  Level FlightAware ADS-B
Fri 22:11:25 42.2100 -67.0710 67° East 494 914 31.000  Level FlightAware ADS-B
Fri 22:12:00 42.2490 -66.9430 68° East 494 914 31.000  Level FlightAware ADS-B
Fri 22:12:39 42.2790 -66.8490 67° East 494 914 31.000  Level FlightAware ADS-B
Fri 22:13:07 42.3090 -66.7490 68° East 495 917 31.000  Level FlightAware ADS-B
Fri 22:13:55 42.3460 -66.6260 68° East 496 919 31.000  Level FlightAware ADS-B
Fri 22:14:31 42.3720 -66.5380 68° East 496 919 31.000  Level FlightAware ADS-B
Fri 22:15:07 42.3980 -66.4500 68° East 496 919 31.000  Level FlightAware ADS-B
Fri 22:15:45 42.4470 -66.2940 67° East 499 924 31.000  Level FlightAware ADS-B
Fri 22:16:30 42.4870 -66.1640 67° East 500 925 31.000  Level FlightAware ADS-B
Fri 22:17:05 42.5190 -66.0580 68° East 501 929 31.000  Level FlightAware ADS-B
Fri 22:17:51 42.5520 -65.9460 68° East 501 929 31.000  Level FlightAware ADS-B
Fri 22:18:32 42.5880 -65.8250 68° East 502 930 31.000  Level FlightAware ADS-B
Fri 22:19:05 42.6240 -65.7070 67° East 502 930 31.000  Level FlightAware ADS-B
Fri 22:19:50 42.6610 -65.5810 68° East 502 930 31.000  Level FlightAware ADS-B
Fri 22:20:26 42.6920 -65.4760 68° East 503 932 31.000  Level FlightAware ADS-B
Fri 22:21:05 42.7290 -65.3510 68° East 504 933 31.000  Level FlightAware ADS-B
Fri 22:21:45 42.7630 -65.2360 68° East 505 935 31.000  Level FlightAware ADS-B
Fri 22:22:20 42.7930 -65.1340 68° East 505 935 31.000  Level FlightAware ADS-B
Fri 22:23:15 42.8360 -64.9850 68° East 505 935 31.000  Level FlightAware ADS-B
Fri 22:23:50 42.8670 -64.8760 69° East 506 937 31.000  Level FlightAware ADS-B
Fri 22:24:30 42.9040 -64.7500 68° East 507 938 31.000  Level FlightAware ADS-B
Fri 22:25:05 42.9320 -64.6520 69° East 508 941 31.000  Level FlightAware ADS-B
Fri 22:25:40 42.9640 -64.5420 68° East 510 945 31.000  Level FlightAware ADS-B
Fri 22:26:15 42.9950 -64.4320 69° East 511 946 31.000  Level FlightAware ADS-B
Fri 22:26:50 43.0240 -64.3300 69° East 511 946 31.000  Level FlightAware ADS-B
Fri 22:27:30 43.0590 -64.2080 69° East 513 950 31.000  Level FlightAware ADS-B
Fri 22:28:00 43.0830 -64.1210 69° East 513 950 31.000  Level FlightAware ADS-B
Fri 22:28:35 43.1130 -64.0140 69° East 513 950 31.000  Level FlightAware ADS-B
Fri 22:29:15 43.1480 -63.8900 69° East 515 954 31.000  Level FlightAware ADS-B
Fri 22:29:45 43.1720 -63.8060 69° East 515 954 31.000  Level FlightAware ADS-B
Fri 22:30:25 43.2080 -63.6760 69° East 516 956 31.000  Level FlightAware ADS-B
Fri 22:30:55 43.2330 -63.5870 69° East 517 958 31.000  Level FlightAware ADS-B
Fri 22:31:30 43.2620 -63.4820 69° East 517 958 31.000  Level FlightAware ADS-B
Fri 22:32:05 43.2930 -63.3700 69° East 517 958 31.000  Level FlightAware ADS-B
Fri 22:32:45 43.3250 -63.2550 69° East 517 958 31.000  Level FlightAware ADS-B
Fri 22:33:15 43.3500 -63.1620 70° East 517 958 31.000  Level FlightAware ADS-B
Fri 22:33:55 43.3860 -63.0320 69° East 518 959 31.000  Level FlightAware ADS-B
Fri 22:34:40 43.4220 -62.8990 70° East 519 961 31.000  Level FlightAware ADS-B
Fri 22:35:25 43.4590 -62.7580 70° East 519 961 31.000  Level FlightAware ADS-B
Fri 22:35:55 43.4850 -62.6650 69° East 519 961 31.000  Level FlightAware ADS-B
Fri 22:36:35 43.5190 -62.5380 70° East 520 962 31.000  Level FlightAware ADS-B
Fri 22:37:17 43.5510 -62.4150 70° East 520 962 31.000  Level FlightAware ADS-B
Fri 22:38:10 43.5970 -62.2440 70° East 519 961 31.000  Level FlightAware ADS-B
Fri 22:38:45 43.6220 -62.1480 70° East 518 959 31.000  Level FlightAware ADS-B
Fri 22:39:25 43.6580 -62.0150 69° East 517 958 31.000  Level FlightAware ADS-B
Fri 22:40:05 43.6900 -61.8920 70° East 517 958 31.000  Level FlightAware ADS-B
Fri 22:40:40 43.7200 -61.7770 70° East 516 956 31.000  Level FlightAware ADS-B
Fri 22:41:21 43.7530 -61.6480 70° East 516 956 31.000  Level FlightAware ADS-B
Fri 22:42:04 43.7820 -61.5370 70° East 516 956 31.000  Level FlightAware ADS-B
Fri 22:42:56 43.8230 -61.3730 71° East 516 956 31.000  Level FlightAware ADS-B
Fri 22:43:32 43.8470 -61.2770 71° East 516 956 31.000  Level FlightAware ADS-B
Fri 22:44:08 43.8710 -61.1810 71° East 516 956 31.000  Level FlightAware ADS-B
Fri 22:44:45 43.8950 -61.0830 71° East 516 956 31.000  Level FlightAware ADS-B
Fri 22:45:21 43.9190 -60.9870 71° East 516 956 31.000  Level FlightAware ADS-B
Fri 22:45:57 43.9430 -60.8910 71° East 516 956 31.000  Level FlightAware ADS-B
Fri 22:46:34 43.9670 -60.7920 71° East 516 956 31.000  Level FlightAware ADS-B
Fri 22:47:11 43.9920 -60.6940 70° East 516 956 31.000  Level FlightAware ADS-B
Fri 22:47:47 44.0160 -60.5980 71° East 516 956 31.000  Level FlightAware ADS-B
Fri 22:48:23 44.0390 -60.5020 72° East 516 956 31.000  Level FlightAware ADS-B
Fri 22:48:59 44.0630 -60.4060 71° East 516 956 31.000  Level FlightAware ADS-B
Fri 22:49:35 44.0870 -60.3090 71° East 516 956 31.000  Level FlightAware ADS-B
Fri 22:50:11 44.1110 -60.2130 71° East 516 956 31.000  Level FlightAware ADS-B
Fri 22:50:47 44.1340 -60.1170 72° East 516 956 31.000  Level FlightAware ADS-B
Fri 22:51:19 44.2250 -59.7490 71° East 527 975 31.000  Level FlightAware ADS-B
Fri 22:51:55 44.2520 -59.6370 71° East 528 978 31.000  Level FlightAware ADS-B
Fri 22:52:29 44.2780 -59.5250 72° East 528 978 31.000  Level FlightAware ADS-B
Fri 22:53:27 44.3200 -59.3520 71° East 527 975 31.000  Level FlightAware ADS-B
Fri 22:54:05 44.3520 -59.2120 72° East 527 975 31.000  Level FlightAware ADS-B
Fri 22:54:41 44.3790 -59.0950 72° East 528 978 31.000  Level FlightAware ADS-B
Fri 22:55:13 44.4020 -58.9920 73° East 527 975 31.000  Level FlightAware ADS-B
Fri 22:55:47 44.4280 -58.8820 72° East 526 974 31.000  Level FlightAware ADS-B
Fri 22:56:21 44.4530 -58.7730 72° East 526 974 31.000  Level FlightAware ADS-B
Fri 22:57:01 44.4820 -58.6430 73° East 526 974 31.000  Level FlightAware ADS-B
Fri 22:57:35 44.5060 -58.5370 72° East 526 974 31.000  Level FlightAware ADS-B
Fri 22:58:09 44.5330 -58.4180 72° East 526 974 31.000  Level FlightAware ADS-B
Fri 22:58:45 44.5590 -58.3040 72° East 527 975 31.000  Level FlightAware ADS-B
Fri 22:59:21 44.5850 -58.1850 73° East 526 974 31.000  Level FlightAware ADS-B
Fri 22:59:57 44.6110 -58.0700 72° East 527 975 31.000  Level FlightAware ADS-B
Fri 23:00:29 44.6340 -57.9630 73° East 527 975 31.000  Level FlightAware ADS-B
Fri 23:01:05 44.6590 -57.8480 73° East 528 978 31.000  Level FlightAware ADS-B
Fri 23:01:41 44.6850 -57.7280 73° East 527 975 31.000  Level FlightAware ADS-B
Fri 23:02:13 44.7070 -57.6230 74° East 527 975 31.000  Level FlightAware ADS-B
Fri 23:02:50 44.7290 -57.5190 73° East 527 975 31.000  Level FlightAware ADS-B
Fri 23:03:27 44.7520 -57.4160 73° East 527 975 31.000  Level FlightAware ADS-B
Fri 23:04:01 44.7810 -57.2680 75° East 524 970 31.000  Level FlightAware ADS-B
Fri 23:04:39 44.8040 -57.1610 73° East 522 967 31.000  Level FlightAware ADS-B
Fri 23:05:15 44.8260 -57.0620 73° East 522 967 31.000  Level FlightAware ADS-B
Fri 23:06:11 44.8660 -56.8590 74° East 520 962 31.000  Level FlightAware ADS-B
Fri 23:06:47 44.8880 -56.7600 73° East 520 962 31.000  Level FlightAware ADS-B
Fri 23:07:23 44.9090 -56.6610 73° East 520 962 31.000  Level FlightAware ADS-B
Fri 23:08:00 44.9320 -56.5590 72° East 520 962 31.000  Level FlightAware ADS-B
Fri 23:08:37 44.9540 -56.4560 73° East 520 962 31.000  Level FlightAware ADS-B
Fri 23:09:13 44.9750 -56.3570 73° East 520 962 31.000  Level FlightAware ADS-B
Fri 23:09:49 44.9970 -56.2570 73° East 520 962 31.000  Level FlightAware ADS-B
Fri 23:10:25 45.0180 -56.1580 73° East 520 962 31.000  Level FlightAware ADS-B
Fri 23:11:00 45.0390 -56.0610 73° East 520 962 31.000  Level FlightAware ADS-B
Fri 23:11:37 45.0610 -55.9580 73° East 520 962 31.000  Level FlightAware ADS-B
Fri 23:12:13 45.0830 -55.8590 72° East 520 962 31.000  Level FlightAware ADS-B
Fri 23:12:49 45.1040 -55.7590 73° East 520 962 31.000  Level FlightAware ADS-B
Fri 23:13:25 45.1260 -55.6590 73° East 520 962 31.000  Level FlightAware ADS-B
Fri 23:14:01 45.1470 -55.5590 73° East 520 962 31.000  Level FlightAware ADS-B
Fri 23:14:37 45.1690 -55.4600 72° East 520 962 31.000  Level FlightAware ADS-B
Fri 23:15:11 45.1890 -55.3650 73° East 520 962 31.000 526 Level FlightAware ADS-B
Fri 23:18:25 45.3400 -54.4590 76° East 518 959 33.000 517 Climbing FlightAware ADS-B
Fri 23:19:03 45.3600 -54.3530 75° East 518 959 33.000  Level FlightAware ADS-B
Fri 23:19:40 45.3790 -54.2490 75° East 518 959 33.000  Level FlightAware ADS-B
Fri 23:20:16 45.3980 -54.1480 75° East 518 959 33.000  Level FlightAware ADS-B
Fri 23:20:52 45.4170 -54.0470 75° East 518 959 33.000  Level FlightAware ADS-B
Fri 23:21:28 45.4360 -53.9460 75° East 518 959 33.000  Level FlightAware ADS-B
Fri 23:22:04 45.4550 -53.8450 75° East 518 959 33.000  Level FlightAware ADS-B
Fri 23:22:41 45.4740 -53.7420 75° East 518 959 33.000  Level FlightAware ADS-B
Fri 23:23:18 45.4940 -53.6380 75° East 518 959 33.000  Level FlightAware ADS-B
Fri 23:23:54 45.5130 -53.5370 75° East 518 959 33.000  Level FlightAware ADS-B
Fri 23:24:30 45.5320 -53.4360 75° East 518 959 33.000  Level FlightAware ADS-B
Fri 23:25:06 45.5510 -53.3340 75° East 518 959 33.000  Level FlightAware ADS-B
Fri 23:25:43 45.5700 -53.2300 75° East 518 959 33.000  Level FlightAware ADS-B
Fri 23:26:19 45.5890 -53.1290 75° East 518 959 33.000  Level FlightAware ADS-B
Fri 23:26:56 45.6090 -53.0250 75° East 518 959 33.000  Level FlightAware ADS-B
Fri 23:27:32 45.6280 -52.9240 75° East 518 959 33.000  Level FlightAware ADS-B
Fri 23:28:08 45.6470 -52.8230 75° East 518 959 33.000 1.348 Level FlightAware ADS-B
Fri 23:29:01 45.6167 -52.3000 75° East 510 945 35.000 1.062 Climbing Gander Center
Fri 23:30:01 45.6500 -52.1000 77° East 510 945 35.000  Level Gander Center
Fri 23:31:01 45.6833 -51.9000 77° East 520 962 35.000  Level Gander Center
Fri 23:32:01 45.7000 -51.7167 83° East 520 962 35.000  Level Gander Center
Fri 23:33:01 45.7500 -51.5167 70° East 520 962 35.000  Level Gander Center
Fri 23:34:01 45.7833 -51.3167 76° East 530 982 35.000  Level Gander Center
Fri 23:35:01 45.8167 -51.0833 78° East 520 962 35.000  Level Gander Center
Fri 23:36:01 45.8500 -50.9000 75° East 530 982 35.000  Level Gander Center
Fri 23:37:01 45.8833 -50.7000 76° East 520 962 35.000  Level Gander Center
Fri 23:38:01 45.9000 -50.5000 83° East 530 982 35.000  Level Gander Center
Fri 23:39:01 45.9333 -50.2667 78° East 520 962 35.000  Level Gander Center
Fri 23:40:01 45.9500 -50.1000 82° East 510 945 35.000  Level Gander Center
Fri 23:41:01 46.0000 -49.9000 70° East 520 962 35.000  Level Gander Center
Fri 23:42:01 46.0500 -49.6833 72° East 500 925 35.000  Level Gander Center
Fri 23:43:01 46.1000 -49.5167 67° East 500 925 35.000  Level Gander Center
Fri 23:44:01 46.1500 -49.3333 68° East 500 925 35.000  Level Gander Center
Fri 23:45:01 46.1833 -49.1333 76° East 510 945 35.000  Level Gander Center
Fri 23:46:01 46.2333 -48.9500 68° East 500 925 35.000  Level Gander Center
Fri 23:47:01 46.2833 -48.7667 68° East 510 945 35.000  Level Gander Center
Fri 23:48:01 46.3333 -48.5500 71° East 510 945 35.000  Level Gander Center
Fri 23:49:01 46.3667 -48.3500 76° East 530 982 35.000  Level Gander Center
Fri 23:50:01 46.4167 -48.1667 68° East 520 962 35.000  Level Gander Center
Fri 23:51:01 46.4500 -47.9667 76° East 530 982 35.000  Level Gander Center
Fri 23:52:01 46.5167 -47.7500 66° East 540 999 35.000  Level Gander Center
Fri 23:53:01 46.5500 -47.5500 76° East 500 925 35.000  Level Gander Center
Fri 23:54:01 46.6000 -47.3667 68° East 530 982 35.000  Level Gander Center
Fri 23:55:01 46.6500 -47.1500 71° East 550 1019 35.000  Level Gander Center
Fri 23:57:05 46.7500 -46.7000 72° East 540 999 35.000  Level Gander Center
Fri 23:59:00 46.8344 -46.3142 72° East  Level FlightAware Approximate
Sat 00:06:00 47.1313 -44.8950 72° East  Level FlightAware Approximate
Sat 00:07:00 47.1723 -44.6910 73° East  Level FlightAware Approximate
Sat 00:08:00 47.2130 -44.4867 74° East  Level FlightAware Approximate
Sat 00:09:00 47.2532 -44.2821 74° East  Level FlightAware Approximate
Sat 00:10:00 47.2931 -44.0771 74° East  Level FlightAware Approximate
Sat 00:11:00 47.3326 -43.8718 74° East  Level FlightAware Approximate
Sat 00:12:00 47.3718 -43.6663 74° East  Level FlightAware Approximate
Sat 00:13:00 47.4106 -43.4604 74° East  Level FlightAware Approximate
Sat 00:14:00 47.4490 -43.2542 75° East  Level FlightAware Approximate
Sat 00:15:00 47.4871 -43.0478 75° East  Level FlightAware Approximate
Sat 00:16:00 47.5248 -42.8410 75° East  Level FlightAware Approximate
Sat 00:17:00 47.5621 -42.6339 75° East  Level FlightAware Approximate
Sat 00:18:00 47.5990 -42.4266 75° East  Level FlightAware Approximate
Sat 00:19:00 47.6356 -42.2189 75° East  Level FlightAware Approximate
Sat 00:20:00 47.6718 -42.0110 75° East  Level FlightAware Approximate
Sat 00:21:00 47.7076 -41.8028 76° East  Level FlightAware Approximate
Sat 00:22:00 47.7430 -41.5943 76° East  Level FlightAware Approximate
Sat 00:23:00 47.7781 -41.3855 76° East  Level FlightAware Approximate
Sat 00:24:00 47.8128 -41.1764 76° East  Level FlightAware Approximate
Sat 00:25:00 47.8471 -40.9670 76° East  Level FlightAware Approximate
Sat 00:26:00 47.8810 -40.7574 76° East  Level FlightAware Approximate
Sat 00:27:00 47.9145 -40.5475 77° East  Level FlightAware Approximate
Sat 00:28:00 47.9477 -40.3373 77° East  Level FlightAware Approximate
Sat 00:29:00 47.9804 -40.1269 77° East  Level FlightAware Approximate
Sat 00:30:00 48.0193 -39.9191 70° East  Level FlightAware Approximate
Sat 00:31:00 48.0677 -39.7152 70° East  Level FlightAware Approximate
Sat 00:32:00 48.1158 -39.5109 71° East  Level FlightAware Approximate
Sat 00:32:00 48.0000 -40.0000 69° East 548 1015 35.000  Level ETMS Enhanced Traffic Management System
Sat 00:33:00 48.1635 -39.3063 71° East  Level FlightAware Approximate
Sat 00:34:00 48.2108 -39.1012 71° East  Level FlightAware Approximate
Sat 00:35:00 48.2578 -38.8958 71° East  Level FlightAware Approximate
Sat 00:36:00 48.3061 -38.6908 70° East  Level FlightAware Approximate
Sat 00:37:00 48.3560 -38.4866 70° East  Level FlightAware Approximate
Sat 00:38:00 48.5677 -37.6316 71° East 548 1015 35.000  Level FlightAware Transoceanic
Sat 00:39:00 48.6169 -37.4137 71° East 548 1015 35.000  Level FlightAware Transoceanic
Sat 00:40:00 48.6656 -37.1954 71° East 548 1015 35.000  Level FlightAware Transoceanic
Sat 00:41:00 48.7140 -36.9767 72° East 548 1015 35.000  Level FlightAware Transoceanic
Sat 00:42:00 48.7619 -36.7575 72° East 548 1015 35.000  Level FlightAware Transoceanic
Sat 00:43:00 48.8094 -36.5379 72° East 548 1015 35.000  Level FlightAware Transoceanic
Sat 00:44:00 48.8565 -36.3179 72° East 548 1015 35.000  Level FlightAware Transoceanic
Sat 00:45:00 48.9032 -36.0975 72° East 548 1015 35.000  Level FlightAware Transoceanic
Sat 00:46:00 48.9495 -35.8767 72° East 548 1015 35.000  Level FlightAware Transoceanic
Sat 00:47:00 48.9953 -35.6555 73° East 548 1015 35.000  Level FlightAware Transoceanic
Sat 00:48:00 49.0408 -35.4338 73° East 548 1015 35.000  Level FlightAware Transoceanic
Sat 00:49:00 49.0858 -35.2118 73° East 548 1015 35.000  Level FlightAware Transoceanic
Sat 00:50:00 49.1303 -34.9894 73° East 548 1015 35.000  Level FlightAware Transoceanic
Sat 00:51:00 49.1744 -34.7666 73° East 548 1015 35.000  Level FlightAware Transoceanic
Sat 00:52:00 49.2182 -34.5433 73° East 548 1015 35.000  Level FlightAware Transoceanic
Sat 00:53:00 49.2614 -34.3197 74° East 548 1015 35.000  Level FlightAware Transoceanic
Sat 00:54:00 49.3043 -34.0957 74° East 548 1015 35.000  Level FlightAware Transoceanic
Sat 00:55:00 49.3467 -33.8713 74° East 548 1015 35.000  Level FlightAware Transoceanic
Sat 00:56:00 49.3887 -33.6465 74° East 548 1015 35.000  Level FlightAware Transoceanic
Sat 00:57:00 49.4302 -33.4214 74° East 548 1015 35.000  Level FlightAware Transoceanic
Sat 00:58:00 49.4713 -33.1958 74° East 548 1015 35.000  Level FlightAware Transoceanic
Sat 00:59:00 49.5120 -32.9699 75° East 548 1015 35.000  Level FlightAware Transoceanic
Sat 01:00:00 49.5522 -32.7436 75° East 548 1015 35.000  Level FlightAware Transoceanic
Sat 01:01:00 49.5920 -32.5169 75° East 548 1015 35.000  Level FlightAware Transoceanic
Sat 01:02:00 49.6313 -32.2899 75° East 548 1015 35.000  Level FlightAware Transoceanic
Sat 01:03:00 49.6702 -32.0625 75° East 548 1015 35.000  Level FlightAware Transoceanic
Sat 01:04:00 49.7086 -31.8347 75° East 548 1015 35.000  Level FlightAware Transoceanic
Sat 01:05:00 49.7466 -31.6066 76° East 548 1015 35.000  Level FlightAware Transoceanic
Sat 01:06:00 49.7842 -31.3781 76° East 548 1015 35.000  Level FlightAware Transoceanic
Sat 01:07:00 49.8213 -31.1493 76° East 548 1015 35.000  Level FlightAware Transoceanic
Sat 01:08:00 49.8579 -30.9201 76° East 548 1015 35.000  Level FlightAware Transoceanic
Sat 01:09:00 49.8941 -30.6906 76° East 548 1015 35.000  Level FlightAware Transoceanic
Sat 01:10:00 49.9299 -30.4607 77° East 548 1015 35.000  Level FlightAware Transoceanic
Sat 01:11:00 49.9652 -30.2305 77° East 548 1015 35.000  Level FlightAware Transoceanic
Sat 01:12:00 49.9983 -30.0115 77° East  Level FlightAware Approximate
Sat 01:13:00 50.0310 -29.7922 77° East  Level FlightAware Approximate
Sat 01:14:00 50.0074 -29.7989 87° East  Level FlightAware Approximate
Sat 01:15:00 50.0152 -29.5741 87° East  Level FlightAware Approximate
Sat 01:15:00 50.0000 -30.0000 86° East 550 1019 35.000  Level ETMS Enhanced Traffic Management System
Sat 01:16:00 50.0225 -29.3493 87° East  Level FlightAware Approximate
Sat 01:17:00 50.0293 -29.1293 87° East  Level FlightAware Approximate
Sat 01:18:00 50.0357 -28.9092 87° East  Level FlightAware Approximate
Sat 01:19:00 50.0417 -28.6891 88° East  Level FlightAware Approximate
Sat 01:20:00 50.0472 -28.4690 88° East  Level FlightAware Approximate
Sat 01:21:00 50.0724 -27.8600 88° East 550 1019 35.000  Level FlightAware Transoceanic
Sat 01:22:00 50.0780 -27.6219 88° East 550 1019 35.000  Level FlightAware Transoceanic
Sat 01:23:00 50.0831 -27.3837 88° East 550 1019 35.000  Level FlightAware Transoceanic
Sat 01:24:00 50.0877 -27.1455 88° East 550 1019 35.000  Level FlightAware Transoceanic
Sat 01:25:00 50.0919 -26.9072 89° East 550 1019 35.000  Level FlightAware Transoceanic
Sat 01:26:00 50.0956 -26.6689 89° East 550 1019 35.000  Level FlightAware Transoceanic
Sat 01:27:00 50.0987 -26.4305 89° East 550 1019 35.000  Level FlightAware Transoceanic
Sat 01:28:00 50.1014 -26.1922 89° East 550 1019 35.000  Level FlightAware Transoceanic
Sat 01:29:00 50.1036 -25.9538 89° East 550 1019 35.000  Level FlightAware Transoceanic
Sat 01:30:00 50.1053 -25.7153 89° East 550 1019 35.000  Level FlightAware Transoceanic
Sat 01:31:00 50.1065 -25.4769 90° East 550 1019 35.000  Level FlightAware Transoceanic
Sat 01:32:00 50.1073 -25.2384 90° East 550 1019 35.000  Level FlightAware Transoceanic
Sat 01:33:00 50.1075 -25.0000 90° East 550 1019 35.000  Level FlightAware Transoceanic
Sat 01:34:00 50.1073 -24.7616 90° East 550 1019 35.000  Level FlightAware Transoceanic
Sat 01:35:00 50.1065 -24.5231 90° East 550 1019 35.000  Level FlightAware Transoceanic
Sat 01:36:00 50.1053 -24.2847 91° East 550 1019 35.000  Level FlightAware Transoceanic
Sat 01:37:00 50.1036 -24.0462 91° East 550 1019 35.000  Level FlightAware Transoceanic
Sat 01:38:00 50.1014 -23.8078 91° East 550 1019 35.000  Level FlightAware Transoceanic
Sat 01:39:00 50.0987 -23.5695 91° East 550 1019 35.000  Level FlightAware Transoceanic
Sat 01:40:00 50.0956 -23.3311 91° East 550 1019 35.000  Level FlightAware Transoceanic
Sat 01:41:00 50.0919 -23.0928 91° East 550 1019 35.000  Level FlightAware Transoceanic
Sat 01:42:00 50.0877 -22.8545 92° East 550 1019 35.000  Level FlightAware Transoceanic
Sat 01:43:00 50.0831 -22.6163 92° East 550 1019 35.000  Level FlightAware Transoceanic
Sat 01:44:00 50.0780 -22.3781 92° East 550 1019 35.000  Level FlightAware Transoceanic
Sat 01:45:00 50.0724 -22.1400 92° East 550 1019 35.000  Level FlightAware Transoceanic
Sat 01:46:00 50.0663 -21.9019 92° East 550 1019 35.000  Level FlightAware Transoceanic
Sat 01:47:00 50.0597 -21.6639 93° East 550 1019 35.000  Level FlightAware Transoceanic
Sat 01:48:00 50.0526 -21.4260 93° East 550 1019 35.000  Level FlightAware Transoceanic
Sat 01:49:00 50.0451 -21.1881 93° East 550 1019 35.000  Level FlightAware Transoceanic
Sat 01:50:00 50.0370 -20.9503 93° East 550 1019 35.000  Level FlightAware Transoceanic
Sat 01:51:00 50.0285 -20.7126 93° East 550 1019 35.000  Level FlightAware Transoceanic
Sat 01:52:00 50.0195 -20.4750 93° East 550 1019 35.000  Level FlightAware Transoceanic
Sat 01:53:00 50.0100 -20.2374 94° East 550 1019 35.000  Level FlightAware Transoceanic
Sat 01:54:00 50.0008 -20.0177 94° East  Level FlightAware Approximate
Sat 01:55:00 49.9912 -19.7981 94° East  Level FlightAware Approximate
Sat 01:56:00 49.9942 -19.8157 93° East  Level FlightAware Approximate
Sat 01:57:00 49.9870 -19.5959 93° East  Level FlightAware Approximate
Sat 01:58:00 49.9793 -19.3762 93° East  Level FlightAware Approximate
Sat 01:59:00 49.9712 -19.1565 93° East  Level FlightAware Approximate
Sat 02:00:00 49.9627 -18.9370 93° East  Level FlightAware Approximate
Sat 02:01:00 49.9538 -18.7175 94° East  Level FlightAware Approximate
Sat 02:02:00 49.9445 -18.4981 94° East  Level FlightAware Approximate
Sat 02:03:00 49.9347 -18.2787 94° East  Level FlightAware Approximate
Sat 02:04:00 49.9245 -18.0595 94° East  Level FlightAware Approximate
Sat 02:05:00 49.9140 -17.8403 94° East  Level FlightAware Approximate
Sat 02:06:00 49.9030 -17.6213 94° East  Level FlightAware Approximate
Sat 02:07:00 49.8916 -17.4024 95° East  Level FlightAware Approximate
Sat 02:08:00 49.8798 -17.1835 95° East  Level FlightAware Approximate
Sat 02:09:00 49.8676 -16.9648 95° East  Level FlightAware Approximate
Sat 02:10:00 49.8549 -16.7462 95° East  Level FlightAware Approximate
Sat 02:11:00 49.8419 -16.5277 95° East  Level FlightAware Approximate
Sat 02:12:00 49.8284 -16.3093 95° East  Level FlightAware Approximate
Sat 02:13:00 49.8146 -16.0910 96° East  Level FlightAware Approximate
Sat 02:14:00 49.8003 -15.8729 96° East  Level FlightAware Approximate
Sat 02:15:00 49.7856 -15.6549 96° East  Level FlightAware Approximate
Sat 02:16:00 49.7705 -15.4371 96° East  Level FlightAware Approximate
Sat 02:17:00 49.7550 -15.2193 96° East  Level FlightAware Approximate
Sat 02:18:00 49.7391 -15.0017 96° East  Level FlightAware Approximate
Sat 02:19:00 49.7228 -14.7843 97° East  Level FlightAware Approximate
Sat 02:20:00 49.7061 -14.5670 97° East  Level FlightAware Approximate
Sat 02:21:00 49.6890 -14.3499 97° East  Level FlightAware Approximate
Sat 02:22:00 49.6714 -14.1329 97° East  Level FlightAware Approximate
Sat 02:23:00 49.6535 -13.9160 97° East  Level FlightAware Approximate
Sat 02:24:00 49.6352 -13.6994 97° East  Level FlightAware Approximate
Sat 02:25:00 49.6164 -13.4829 98° East  Level FlightAware Approximate
Sat 02:26:00 49.5973 -13.2666 98° East  Level FlightAware Approximate
Sat 02:27:00 49.5777 -13.0504 98° East  Level FlightAware Approximate
Sat 02:28:00 49.5577 -12.8344 98° East  Level FlightAware Approximate
Sat 02:29:00 49.5374 -12.6186 98° East  Level FlightAware Approximate
Sat 02:30:00 49.5166 -12.4030 98° East  Level FlightAware Approximate
Sat 02:31:00 49.4955 -12.1875 99° East  Level FlightAware Approximate
Sat 02:32:00 49.4739 -11.9723 99° East  Level FlightAware Approximate
Sat 02:33:00 49.4519 -11.7572 99° East  Level FlightAware Approximate
Sat 02:34:00 49.4296 -11.5423 99° East  Level FlightAware Approximate
Sat 02:35:00 49.4068 -11.3277 99° East  Level FlightAware Approximate
Sat 02:36:00 49.3837 -11.1132 99° East  Level FlightAware Approximate
Sat 02:37:00 49.3601 -10.8989 99° East  Level FlightAware Approximate
Sat 02:38:00 49.3362 -10.6849 100° East  Level FlightAware Approximate
Sat 02:39:00 49.3119 -10.4710 100° East  Level FlightAware Approximate
Sat 02:40:00 49.2871 -10.2574 100° East  Level FlightAware Approximate
Sat 02:40:22 49.3930 -9.9140 100° East 510 945 35.000  Level FlightAware ADS-B
Sat 02:41:00 49.2620 -10.0440 100° East  Level FlightAware Approximate
Sat 02:41:04 49.3690 -9.7670 104° East 511 946 35.000  Level FlightAware ADS-B
Sat 02:41:37 49.3500 -9.6580 105° East 512 948 35.000  Level FlightAware ADS-B
Sat 02:42:27 49.3240 -9.4940 104° East 512 948 35.000  Level FlightAware ADS-B
Sat 02:43:03 49.3060 -9.3860 104° East 512 948 35.000  Level FlightAware ADS-B
Sat 02:43:37 49.2780 -9.2280 105° East 514 953 35.000  Level FlightAware ADS-B
Sat 02:44:13 49.2560 -9.1020 105° East 514 953 35.000  Level FlightAware ADS-B
Sat 02:44:50 49.2340 -8.9740 105° East 515 954 35.000  Level FlightAware ADS-B
Sat 02:45:26 49.2120 -8.8440 104° East 517 958 35.000  Level FlightAware ADS-B
Sat 02:45:52 49.1960 -8.7540 105° East 517 958 35.000  Level FlightAware ADS-B
Sat 02:46:34 49.1700 -8.6040 105° East 519 961 35.000  Level FlightAware ADS-B
Sat 02:47:08 49.1643 -8.5699 105° East 500 925 35.000  Level FlightAware UK
Sat 02:47:10 49.1480 -8.4810 105° East 519 961 35.000  Level FlightAware ADS-B
Sat 02:47:46 49.1250 -8.3490 105° East 520 962 35.000  Level FlightAware ADS-B
Sat 02:48:18 49.1060 -8.2370 104° East 521 966 35.000  Level FlightAware ADS-B
Sat 02:48:53 49.0840 -8.1160 105° East 521 966 35.000  Level FlightAware ADS-B
Sat 02:49:30 49.0600 -7.9820 105° East 521 966 35.000  Level FlightAware ADS-B
Sat 02:50:02 49.0390 -7.8690 106° East 521 966 35.000  Level FlightAware ADS-B
Sat 02:50:38 49.0266 -7.8331 106° East 502 930 35.000  Level FlightAware UK
Sat 02:50:39 49.0080 -7.7490 106° East 521 966 35.000  Level FlightAware ADS-B
Sat 02:51:16 48.9680 -7.6210 115° Southeast 521 966 35.000  Level FlightAware ADS-B
Sat 02:51:48 48.9350 -7.5150 115° Southeast 522 967 35.000  Level FlightAware ADS-B
Sat 02:52:24 48.8980 -7.3960 115° Southeast 520 962 35.000  Level FlightAware ADS-B
Sat 02:52:58 48.8630 -7.2850 116° Southeast 521 966 35.000  Level FlightAware ADS-B
Sat 02:53:33 48.8270 -7.1710 116° Southeast 521 966 35.000  Level FlightAware ADS-B
Sat 02:54:08 48.8095 -7.1442 116° Southeast 502 930 35.000  Level FlightAware UK
Sat 02:54:10 48.7870 -7.0470 116° Southeast 521 966 35.000  Level FlightAware ADS-B
Sat 02:54:44 48.7721 -7.0275 116° Southeast 500 925 35.000  Level FlightAware UK
Sat 02:54:44 48.7510 -6.9340 116° Southeast 521 966 35.000  Level FlightAware ADS-B
Sat 02:55:14 48.7401 -6.9290 116° Southeast 500 925 35.000  Level FlightAware UK
Sat 02:55:17 48.7160 -6.8270 116° Southeast 520 962 35.000  Level FlightAware ADS-B
Sat 02:55:54 48.6780 -6.7070 116° Southeast 520 962 35.000  Level FlightAware ADS-B
Sat 02:56:27 48.6460 -6.6090 116° Southeast 530 982 35.000  Level FlightAware ADS-B
Sat 02:57:03 48.6050 -6.4840 116° Southeast 521 966 35.000  Level FlightAware ADS-B
Sat 02:57:37 48.5680 -6.3680 116° Southeast 522 967 35.000  Level FlightAware ADS-B
Sat 02:58:14 48.5290 -6.2490 116° Southeast 522 967 35.000  Level FlightAware ADS-B
Sat 02:58:15 48.5507 -6.3455 116° Southeast 500 925 35.000  Level FlightAware UK
Sat 02:58:45 48.5194 -6.2488 116° Southeast 500 925 35.000  Level FlightAware UK
Sat 02:58:51 48.4890 -6.1280 116° Southeast 521 966 35.000  Level FlightAware ADS-B
Sat 02:59:23 48.4550 -6.0230 116° Southeast 522 967 35.000  Level FlightAware ADS-B
Sat 03:00:00 48.4150 -5.9030 117° Southeast 522 967 35.000  Level FlightAware ADS-B
Sat 03:00:35 48.3770 -5.7890 117° Southeast 522 967 35.000  Level FlightAware ADS-B
Sat 03:01:07 48.3440 -5.6870 116° Southeast 522 967 35.000  Level FlightAware ADS-B
Sat 03:01:44 48.3020 -5.5640 116° Southeast 522 967 35.000  Level FlightAware ADS-B
Sat 03:01:45 48.3261 -5.6696 116° Southeast 500 925 35.000  Level FlightAware UK
Sat 03:02:15 48.2936 -5.5736 116° Southeast 500 925 35.000  Level FlightAware UK
Sat 03:02:19 48.2650 -5.4520 116° Southeast 522 967 35.000  Level FlightAware ADS-B
Sat 03:02:56 48.2250 -5.3340 117° Southeast 523 969 35.000  Level FlightAware ADS-B
Sat 03:03:28 48.1890 -5.2280 117° Southeast 523 969 35.000  Level FlightAware ADS-B
Sat 03:04:01 48.1540 -5.1230 117° Southeast 523 969 35.000  Level FlightAware ADS-B
Sat 03:04:39 48.1120 -5.0000 117° Southeast 523 969 35.000  Level FlightAware ADS-B
Sat 03:05:16 48.0720 -4.8820 117° Southeast 522 967 35.000  Level FlightAware ADS-B
Sat 03:05:47 48.0390 -4.7850 117° Southeast 523 969 35.000  Level FlightAware ADS-B
Sat 03:06:24 47.9980 -4.6630 117° Southeast 523 969 35.000  Level FlightAware ADS-B
Sat 03:07:00 47.9590 -4.5500 117° Southeast 523 969 35.000  Level FlightAware ADS-B
Sat 03:07:33 47.9210 -4.4400 117° Southeast 522 967 35.000  Level FlightAware ADS-B
Sat 03:08:07 47.8840 -4.3330 117° Southeast 522 967 35.000  Level FlightAware ADS-B
Sat 03:08:42 47.8450 -4.2220 118° Southeast 522 967 35.000  Level FlightAware ADS-B
Sat 03:09:17 47.8060 -4.1090 117° Southeast 523 969 35.000  Level FlightAware ADS-B
Sat 03:09:54 47.7650 -3.9950 118° Southeast 523 969 35.000  Level FlightAware ADS-B
Sat 03:10:31 47.7240 -3.8790 118° Southeast 523 969 35.000  Level FlightAware ADS-B
Sat 03:11:08 47.6810 -3.7570 118° Southeast 523 969 35.000  Level FlightAware ADS-B
Sat 03:11:57 47.6250 -3.6010 118° Southeast 523 969 35.000  Level FlightAware ADS-B
Sat 03:12:32 47.5870 -3.4940 118° Southeast 522 967 35.000  Level FlightAware ADS-B
Sat 03:13:06 47.5490 -3.3850 117° Southeast 521 966 35.000  Level FlightAware ADS-B
Sat 03:13:41 47.5130 -3.2750 116° Southeast 519 961 35.000  Level FlightAware ADS-B
Sat 03:14:17 47.4760 -3.1540 114° Southeast 518 959 35.000  Level FlightAware ADS-B
Sat 03:14:53 47.4430 -3.0420 114° Southeast 517 958 35.000  Level FlightAware ADS-B
Sat 03:15:25 47.4130 -2.9400 113° Southeast 516 956 35.000  Level FlightAware ADS-B
Sat 03:16:01 47.3770 -2.8220 114° Southeast 516 956 35.000  Level FlightAware ADS-B
Sat 03:16:37 47.3430 -2.7070 114° Southeast 516 956 35.000  Level FlightAware ADS-B
Sat 03:17:07 47.3140 -2.6120 114° Southeast 515 954 35.000  Level FlightAware ADS-B
Sat 03:17:45 47.2770 -2.4910 114° Southeast 514 953 35.000  Level FlightAware ADS-B
Sat 03:18:21 47.2400 -2.3690 114° Southeast 514 953 35.000  Level FlightAware ADS-B
Sat 03:18:59 47.2040 -2.2530 115° Southeast 514 953 35.000  Level FlightAware ADS-B
Sat 03:19:31 47.1740 -2.1540 114° Southeast 513 950 35.000  Level FlightAware ADS-B
Sat 03:20:07 47.1390 -2.0410 114° Southeast 514 953 35.000  Level FlightAware ADS-B
Sat 03:20:43 47.1020 -1.9230 115° Southeast 514 953 35.000  Level FlightAware ADS-B
Sat 03:21:15 47.0710 -1.8240 115° Southeast 514 953 35.000  Level FlightAware ADS-B
Sat 03:21:53 47.0310 -1.6960 115° Southeast 514 953 35.000  Level FlightAware ADS-B
Sat 03:22:29 46.9940 -1.5820 115° Southeast 514 953 35.000  Level FlightAware ADS-B
Sat 03:23:01 46.9620 -1.4810 115° Southeast 513 950 35.000  Level FlightAware ADS-B
Sat 03:23:37 46.9260 -1.3700 115° Southeast 513 950 35.000  Level FlightAware ADS-B
Sat 03:24:05 46.8970 -1.2800 115° Southeast 512 948 35.000  Level FlightAware ADS-B
Sat 03:24:42 46.8610 -1.1700 116° Southeast 512 948 35.000  Level FlightAware ADS-B
Sat 03:25:17 46.8250 -1.0580 115° Southeast 512 948 35.000  Level FlightAware ADS-B
Sat 03:25:49 46.7920 -0.9570 115° Southeast 511 946 35.000  Level FlightAware ADS-B
Sat 03:26:25 46.7550 -0.8440 116° Southeast 511 946 35.000  Level FlightAware ADS-B
Sat 03:27:01 46.7200 -0.7340 115° Southeast 507 938 35.000  Level FlightAware ADS-B
Sat 03:27:42 46.6840 -0.6100 113° Southeast 508 941 35.000  Level FlightAware ADS-B
Sat 03:28:12 46.6600 -0.5270 113° Southeast 507 938 35.000  Level FlightAware ADS-B
Sat 03:28:52 46.6200 -0.3910 113° Southeast 507 938 35.000  Level FlightAware ADS-B
Sat 03:29:27 46.5880 -0.2860 114° Southeast 506 937 35.000  Level FlightAware ADS-B
Sat 03:30:02 46.5550 -0.1760 114° Southeast 507 938 35.000  Level FlightAware ADS-B
Sat 03:30:37 46.5230 -0.0680 113° Southeast 506 937 35.000  Level FlightAware ADS-B
Sat 03:31:12 46.4860 0.0490 115° Southeast 510 945 35.000  Level FlightAware ADS-B
Sat 03:31:42 46.4540 0.1230 122° Southeast 513 950 35.000  Level FlightAware ADS-B
Sat 03:32:17 46.4040 0.2340 123° Southeast 512 948 35.000  Level FlightAware ADS-B
Sat 03:32:57 46.3550 0.3420 123° Southeast 512 948 35.000  Level FlightAware ADS-B
Sat 03:33:32 46.3090 0.4420 124° Southeast 511 946 35.000  Level FlightAware ADS-B
Sat 03:34:07 46.2600 0.5500 123° Southeast 510 945 35.000  Level FlightAware ADS-B
Sat 03:34:42 46.2160 0.6490 123° Southeast 508 941 35.000  Level FlightAware ADS-B
Sat 03:35:17 46.1800 0.7420 119° Southeast 504 933 35.000  Level FlightAware ADS-B
Sat 03:35:52 46.1390 0.8500 119° Southeast 504 933 35.000  Level FlightAware ADS-B
Sat 03:36:27 46.1020 0.9460 119° Southeast 502 930 35.000  Level FlightAware ADS-B
Sat 03:37:02 46.0610 1.0530 119° Southeast 501 929 35.000  Level FlightAware ADS-B
Sat 03:37:37 46.0260 1.1640 114° Southeast 493 912 35.000  Level FlightAware ADS-B
Sat 03:38:12 45.9990 1.2640 111° Southeast 490 908 35.000  Level FlightAware ADS-B
Sat 03:38:47 45.9690 1.3760 111° Southeast 489 906 35.000  Level FlightAware ADS-B
Sat 03:39:22 45.9430 1.4760 110° East 489 906 35.000  Level FlightAware ADS-B
Sat 03:39:57 45.9150 1.5850 110° East 488 904 35.000  Level FlightAware ADS-B
Sat 03:40:32 45.8900 1.6810 110° East 489 906 35.000  Level FlightAware ADS-B
Sat 03:41:07 45.8610 1.7960 110° East 490 908 35.000  Level FlightAware ADS-B
Sat 03:41:42 45.8320 1.9090 110° East 491 909 35.000  Level FlightAware ADS-B
Sat 03:42:26 45.7950 2.0480 111° Southeast 491 909 35.000  Level FlightAware ADS-B
Sat 03:42:59 45.7690 2.1470 111° Southeast 491 909 35.000  Level FlightAware ADS-B
Sat 03:43:34 45.7400 2.2550 111° Southeast 490 908 35.000  Level FlightAware ADS-B
Sat 03:44:09 45.7110 2.3580 112° Southeast 493 912 35.000  Level FlightAware ADS-B
Sat 03:44:45 45.6760 2.4660 115° Southeast 495 917 35.000  Level FlightAware ADS-B
Sat 03:45:19 45.6420 2.5640 116° Southeast 496 919 35.000  Level FlightAware ADS-B
Sat 03:45:55 45.6060 2.6660 117° Southeast 497 921 35.000  Level FlightAware ADS-B
Sat 03:46:31 45.5670 2.7730 117° Southeast 497 921 35.000  Level FlightAware ADS-B
Sat 03:47:06 45.5280 2.8780 118° Southeast 497 921 35.000  Level FlightAware ADS-B
Sat 03:47:37 45.4970 2.9640 117° Southeast 497 921 35.000  Level FlightAware ADS-B
Sat 03:48:24 45.4460 3.1020 118° Southeast 496 919 35.000  Level FlightAware ADS-B
Sat 03:49:00 45.4070 3.2070 118° Southeast 494 914 35.000  Level FlightAware ADS-B
Sat 03:49:31 45.3750 3.2930 118° Southeast 494 914 35.000  Level FlightAware ADS-B
Sat 03:50:08 45.3360 3.3980 118° Southeast 493 912 35.000  Level FlightAware ADS-B
Sat 03:50:44 45.2970 3.5030 118° Southeast 492 911 35.000  Level FlightAware ADS-B
Sat 03:51:20 45.2580 3.6080 118° Southeast 493 912 35.000  Level FlightAware ADS-B
Sat 03:51:52 45.2250 3.6960 118° Southeast 492 911 35.000  Level FlightAware ADS-B
Sat 03:52:28 45.1850 3.8020 118° Southeast 491 909 35.000  Level FlightAware ADS-B
Sat 03:53:04 45.1470 3.9040 118° Southeast 490 908 35.000  Level FlightAware ADS-B
Sat 03:53:36 45.1130 3.9930 118° Southeast 489 906 35.000  Level FlightAware ADS-B
Sat 03:54:12 45.0740 4.0960 118° Southeast 489 906 35.000  Level FlightAware ADS-B
Sat 03:54:48 45.0360 4.1970 118° Southeast 488 904 35.000  Level FlightAware ADS-B
Sat 03:55:24 44.9970 4.2980 119° Southeast 487 901 35.000  Level FlightAware ADS-B
Sat 03:55:57 44.9590 4.3870 121° Southeast 495 917 35.000  Level FlightAware ADS-B
Sat 03:56:32 44.9140 4.4810 124° Southeast 495 917 35.000  Level FlightAware ADS-B
Sat 03:57:08 44.8680 4.5800 123° Southeast 495 917 35.000  Level FlightAware ADS-B
Sat 03:57:44 44.8240 4.6760 123° Southeast 495 917 35.000  Level FlightAware ADS-B
Sat 03:58:16 44.7840 4.7640 123° Southeast 495 917 35.000  Level FlightAware ADS-B
Sat 03:58:52 44.7390 4.8620 123° Southeast 495 917 35.000  Level FlightAware ADS-B
Sat 03:59:28 44.6960 4.9580 122° Southeast 494 914 35.000  Level FlightAware ADS-B
Sat 04:00:04 44.6520 5.0530 123° Southeast 493 912 35.000  Level FlightAware ADS-B
Sat 04:00:38 44.6080 5.1440 124° Southeast 493 912 35.000  Level FlightAware ADS-B
Sat 04:01:12 44.5640 5.2350 124° Southeast 495 917 35.000  Level FlightAware ADS-B
Sat 04:01:50 44.5140 5.3380 124° Southeast 495 917 35.000  Level FlightAware ADS-B
Sat 04:02:22 44.4740 5.4210 124° Southeast 496 919 35.000  Level FlightAware ADS-B
Sat 04:02:58 44.4280 5.5170 124° Southeast 495 917 35.000  Level FlightAware ADS-B
Sat 04:03:34 44.3820 5.6130 124° Southeast 494 914 35.000  Level FlightAware ADS-B
Sat 04:04:10 44.3350 5.7090 124° Southeast 494 914 35.000  Level FlightAware ADS-B
Sat 04:04:42 44.2950 5.7910 124° Southeast 494 914 35.000  Level FlightAware ADS-B
Sat 04:05:20 44.2470 5.8880 125° Southeast 494 914 35.000  Level FlightAware ADS-B
Sat 04:05:52 44.2050 5.9730 125° Southeast 494 914 35.000  Level FlightAware ADS-B
Sat 04:06:29 44.1570 6.0700 125° Southeast 495 917 35.000  Level FlightAware ADS-B
Sat 04:07:07 44.1100 6.1660 124° Southeast 497 921 35.000  Level FlightAware ADS-B
Sat 04:07:43 44.0610 6.2640 125° Southeast 499 924 35.000 405 Level FlightAware ADS-B
Sat 04:08:21 44.0090 6.3700 124° Southeast 502 930 35.500 1.054 Climbing FlightAware ADS-B
Sat 04:08:57 43.9610 6.4660 125° Southeast 501 929 36.300 1.059 Climbing FlightAware ADS-B
Sat 04:09:29 43.9200 6.5490 124° Southeast 504 933 36.700 618 Climbing FlightAware ADS-B
Sat 04:10:05 43.8720 6.6450 125° Southeast 505 935 37.000 257 Climbing FlightAware ADS-B
Sat 04:10:39 43.8270 6.7340 125° Southeast 504 933 37.000  Level FlightAware ADS-B
Sat 04:11:06 43.7910 6.8060 125° Southeast 503 932 37.000  Level FlightAware ADS-B
Sat 04:11:58 43.7220 6.9420 125° Southeast 502 930 37.000  Level FlightAware ADS-B
Sat 04:12:28 43.6800 7.0210 126° Southeast 504 933 37.000  Level FlightAware ADS-B
Sat 04:13:14 43.6130 7.1320 130° Southeast 506 937 37.000  Level FlightAware ADS-B
Sat 04:13:49 43.5640 7.2270 125° Southeast 502 930 37.000  Level FlightAware ADS-B
Sat 04:14:25 43.5200 7.3270 121° Southeast 504 933 37.000  Level FlightAware ADS-B
Sat 04:14:58 43.4830 7.4130 121° Southeast 507 938 37.000  Level FlightAware ADS-B
Sat 04:15:34 43.4370 7.5180 121° Southeast 511 946 37.000  Level FlightAware ADS-B
Sat 04:16:08 43.3970 7.6090 121° Southeast 513 950 37.000  Level FlightAware ADS-B
Sat 04:16:44 43.3510 7.7120 122° Southeast 515 954 37.000  Level FlightAware ADS-B
Sat 04:17:19 43.3080 7.8090 121° Southeast 516 956 37.000  Level FlightAware ADS-B
Sat 04:17:56 43.2630 7.9110 121° Southeast 517 958 37.000  Level FlightAware ADS-B
Sat 04:18:28 43.2220 8.0010 122° Southeast 519 961 37.000  Level FlightAware ADS-B
Sat 04:19:03 43.1780 8.1010 121° Southeast 521 966 37.000  Level FlightAware ADS-B
Sat 04:19:35 43.1380 8.1910 121° Southeast 522 967 37.000  Level FlightAware ADS-B
Sat 04:20:14 43.0880 8.3030 121° Southeast 525 972 37.000  Level FlightAware ADS-B
Sat 04:20:49 43.0440 8.4020 121° Southeast 526 974 37.000  Level FlightAware ADS-B
Sat 04:21:25 42.9980 8.5040 122° Southeast 526 974 37.000  Level FlightAware ADS-B
Sat 04:22:00 42.9550 8.6010 121° Southeast 526 974 37.000  Level FlightAware ADS-B
Sat 04:22:42 42.9040 8.7140 122° Southeast 525 972 37.000  Level FlightAware ADS-B
Sat 04:23:12 42.8700 8.7900 121° Southeast 524 970 37.000  Level FlightAware ADS-B
Sat 04:23:50 42.8180 8.9040 122° Southeast 522 967 37.000  Level FlightAware ADS-B
Sat 04:24:20 42.7830 8.9820 121° Southeast 521 966 37.000  Level FlightAware ADS-B
Sat 04:24:59 42.7290 9.1010 122° Southeast 518 959 37.000  Level FlightAware ADS-B
Sat 04:25:39 42.6770 9.2140 122° Southeast 517 958 37.000  Level FlightAware ADS-B
Sat 04:26:19 42.6270 9.3230 122° Southeast 516 956 37.000  Level FlightAware ADS-B
Sat 04:26:55 42.5800 9.4260 122° Southeast 516 956 37.000  Level FlightAware ADS-B
Sat 04:27:28 42.5390 9.5160 122° Southeast 515 954 37.000  Level FlightAware ADS-B
Sat 04:28:02 42.5050 9.6100 116° Southeast 516 956 37.000  Level FlightAware ADS-B
Sat 04:28:38 42.4740 9.7250 110° East 517 958 37.000  Level FlightAware ADS-B
Sat 04:29:16 42.4390 9.8350 113° Southeast 518 959 37.000  Level FlightAware ADS-B
Sat 04:29:48 42.3990 9.9260 121° Southeast 518 959 37.000  Level FlightAware ADS-B
Sat 04:30:23 42.3550 10.0200 122° Southeast 518 959 37.000  Level FlightAware ADS-B
Sat 04:31:00 42.3060 10.1230 123° Southeast 518 959 37.000  Level FlightAware ADS-B
Sat 04:31:36 42.2610 10.2190 122° Southeast 519 961 37.000  Level FlightAware ADS-B
Sat 04:32:08 42.2190 10.3080 122° Southeast 519 961 37.000  Level FlightAware ADS-B
Sat 04:32:40 42.1780 10.3950 122° Southeast 519 961 37.000  Level FlightAware ADS-B
Sat 04:33:19 42.1280 10.5000 123° Southeast 519 961 37.000  Level FlightAware ADS-B
Sat 04:33:56 42.0800 10.6010 123° Southeast 519 961 37.000  Level FlightAware ADS-B
Sat 04:34:28 42.0380 10.6890 123° Southeast 519 961 37.000  Level FlightAware ADS-B
Sat 04:35:04 41.9910 10.7880 123° Southeast 519 961 37.000  Level FlightAware ADS-B
Sat 04:35:40 41.9450 10.8850 122° Southeast 520 962 37.000  Level FlightAware ADS-B
Sat 04:36:10 41.9060 10.9660 123° Southeast 520 962 37.000  Level FlightAware ADS-B
Sat 04:36:50 41.8530 11.0750 123° Southeast 520 962 37.000  Level FlightAware ADS-B
Sat 04:37:26 41.8060 11.1710 123° Southeast 520 962 37.000  Level FlightAware ADS-B
Sat 04:37:58 41.7650 11.2560 123° Southeast 520 962 37.000  Level FlightAware ADS-B
Sat 04:38:34 41.7160 11.3560 123° Southeast 520 962 37.000  Level FlightAware ADS-B
Sat 04:39:10 41.6690 11.4500 124° Southeast 520 962 37.000  Level FlightAware ADS-B
Sat 04:39:42 41.6270 11.5370 123° Southeast 520 962 37.000  Level FlightAware ADS-B
Sat 04:40:18 41.5790 11.6340 123° Southeast 522 967 37.000  Level FlightAware ADS-B
Sat 04:40:54 41.5310 11.7320 123° Southeast 522 967 37.000  Level FlightAware ADS-B
Sat 04:41:30 41.4840 11.8260 124° Southeast 523 969 37.000  Level FlightAware ADS-B
Sat 04:42:02 41.4410 11.9140 123° Southeast 523 969 37.000  Level FlightAware ADS-B
Sat 04:42:40 41.3900 12.0150 124° Southeast 524 970 37.000  Level FlightAware ADS-B
Sat 04:43:12 41.3490 12.0980 123° Southeast 525 972 37.000  Level FlightAware ADS-B
Sat 04:43:48 41.2980 12.2000 124° Southeast 525 972 37.000  Level FlightAware ADS-B
Sat 04:44:24 41.2500 12.2970 123° Southeast 525 972 37.000  Level FlightAware ADS-B
Sat 04:45:00 41.2030 12.3960 122° Southeast 526 974 37.000  Level FlightAware ADS-B
Sat 04:45:33 41.1630 12.4870 120° Southeast 525 972 37.000  Level FlightAware ADS-B
Sat 04:46:09 41.1200 12.5860 120° Southeast 525 972 37.000  Level FlightAware ADS-B
Sat 04:46:41 41.0820 12.6730 120° Southeast 525 972 37.000  Level FlightAware ADS-B
Sat 04:47:15 41.0430 12.7630 120° Southeast 524 970 37.000  Level FlightAware ADS-B
Sat 04:47:51 40.9970 12.8700 120° Southeast 524 970 37.000  Level FlightAware ADS-B
Sat 04:48:25 40.9550 12.9660 120° Southeast 525 972 37.000  Level FlightAware ADS-B
Sat 04:49:04 40.9080 13.0730 120° Southeast 525 972 37.000  Level FlightAware ADS-B
Sat 04:49:39 40.8660 13.1680 120° Southeast 526 974 37.000  Level FlightAware ADS-B
Sat 04:50:15 40.8220 13.2680 120° Southeast 527 975 37.000  Level FlightAware ADS-B
Sat 04:50:47 40.7820 13.3580 120° Southeast 527 975 37.000  Level FlightAware ADS-B
Sat 04:51:24 40.7350 13.4610 121° Southeast 526 974 37.000  Level FlightAware ADS-B
Sat 04:52:00 40.6890 13.5630 121° Southeast 526 974 37.000  Level FlightAware ADS-B
Sat 04:52:35 40.6470 13.6580 120° Southeast 526 974 37.000  Level FlightAware ADS-B
Sat 04:53:09 40.6040 13.7510 121° Southeast 526 974 37.000  Level FlightAware ADS-B
Sat 04:53:45 40.5590 13.8520 120° Southeast 526 974 37.000  Level FlightAware ADS-B
Sat 04:54:21 40.5140 13.9500 121° Southeast 525 972 37.000  Level FlightAware ADS-B
Sat 04:54:53 40.4750 14.0350 121° Southeast 525 972 37.000  Level FlightAware ADS-B
Sat 04:55:29 40.4290 14.1360 121° Southeast 523 969 37.000  Level FlightAware ADS-B
Sat 04:56:06 40.3840 14.2350 121° Southeast 522 967 37.000  Level FlightAware ADS-B
Sat 04:56:37 40.3450 14.3180 122° Southeast 521 966 37.000  Level FlightAware ADS-B
Sat 04:57:13 40.3000 14.4160 121° Southeast 521 966 37.000  Level FlightAware ADS-B
Sat 04:57:50 40.2540 14.5130 122° Southeast 521 966 37.000  Level FlightAware ADS-B
Sat 04:58:25 40.2090 14.6110 121° Southeast 522 967 37.000  Level FlightAware ADS-B
Sat 04:58:57 40.1690 14.6950 122° Southeast 524 970 37.000  Level FlightAware ADS-B
Sat 04:59:33 40.1220 14.7950 122° Southeast 526 974 37.000  Level FlightAware ADS-B
Sat 05:00:09 40.0770 14.8900 122° Southeast 526 974 37.000  Level FlightAware ADS-B
Sat 05:00:45 40.0300 14.9880 122° Southeast 527 975 37.000  Level FlightAware ADS-B
Sat 05:01:19 39.9870 15.0800 121° Southeast 528 978 37.000  Level FlightAware ADS-B
Sat 05:01:55 39.9400 15.1770 122° Southeast 527 975 37.000  Level FlightAware ADS-B
Sat 05:02:31 39.8940 15.2730 122° Southeast 527 975 37.000  Level FlightAware ADS-B
Sat 05:03:03 39.8530 15.3580 122° Southeast 526 974 37.000  Level FlightAware ADS-B
Sat 05:03:39 39.8060 15.4560 122° Southeast 526 974 37.000  Level FlightAware ADS-B
Sat 05:04:13 39.7610 15.5480 122° Southeast 525 972 37.000  Level FlightAware ADS-B
Sat 05:04:49 39.7150 15.6440 122° Southeast 524 970 37.000  Level FlightAware ADS-B
Sat 05:05:21 39.6730 15.7270 123° Southeast 524 970 37.000  Level FlightAware ADS-B
Sat 05:05:59 39.6240 15.8310 121° Southeast 525 972 37.000  Level FlightAware ADS-B
Sat 05:06:35 39.5860 15.9280 117° Southeast 526 974 37.000  Level FlightAware ADS-B
Sat 05:07:07 39.5540 16.0210 114° Southeast 527 975 37.000  Level FlightAware ADS-B
Sat 05:07:43 39.5180 16.1250 114° Southeast 527 975 37.000  Level FlightAware ADS-B
Sat 05:08:19 39.4840 16.2260 114° Southeast 528 978 37.000  Level FlightAware ADS-B
Sat 05:08:55 39.4470 16.3330 114° Southeast 527 975 37.000  Level FlightAware ADS-B
Sat 05:09:27 39.4150 16.4260 114° Southeast 528 978 37.000  Level FlightAware ADS-B
Sat 05:10:05 39.3790 16.5330 113° Southeast 527 975 37.000  Level FlightAware ADS-B
Sat 05:10:41 39.3430 16.6360 114° Southeast 527 975 37.000  Level FlightAware ADS-B
Sat 05:11:13 39.3110 16.7290 114° Southeast 528 978 37.000  Level FlightAware ADS-B
Sat 05:11:35 39.2890 16.7930 114° Southeast 527 975 37.000  Level FlightAware ADS-B
Sat 05:12:25 39.2390 16.9370 114° Southeast 526 974 37.000  Level FlightAware ADS-B
Sat 05:12:57 39.2070 17.0300 114° Southeast 527 975 37.000  Level FlightAware ADS-B
Sat 05:13:34 39.1700 17.1370 114° Southeast 526 974 37.000  Level FlightAware ADS-B
Sat 05:14:08 39.1350 17.2350 115° Southeast 526 974 37.000  Level FlightAware ADS-B
Sat 05:14:42 39.1010 17.3310 115° Southeast 525 972 37.000  Level FlightAware ADS-B
Sat 05:15:18 39.0650 17.4340 114° Southeast 524 970 37.000  Level FlightAware ADS-B
Sat 05:15:54 39.0290 17.5350 115° Southeast 524 970 37.000  Level FlightAware ADS-B
Sat 05:16:30 38.9920 17.6380 115° Southeast 523 969 37.000  Level FlightAware ADS-B
Sat 05:17:02 38.9600 17.7280 115° Southeast 523 969 37.000  Level FlightAware ADS-B
Sat 05:17:38 38.9230 17.8290 115° Southeast 523 969 37.000  Level FlightAware ADS-B
Sat 05:18:14 38.8870 17.9300 115° Southeast 523 969 37.000  Level FlightAware ADS-B
Sat 05:18:50 38.8500 18.0330 115° Southeast 524 970 37.000  Level FlightAware ADS-B
Sat 05:19:24 38.8150 18.1280 115° Southeast 525 972 37.000  Level FlightAware ADS-B
Sat 05:20:00 38.7780 18.2310 115° Southeast 525 972 37.000  Level FlightAware ADS-B
Sat 05:20:32 38.7450 18.3200 115° Southeast 526 974 37.000  Level FlightAware ADS-B
Sat 05:21:10 38.7050 18.4270 116° Southeast 526 974 37.000  Level FlightAware ADS-B
Sat 05:21:40 38.6740 18.5110 115° Southeast 527 975 37.000  Level FlightAware ADS-B
Sat 05:22:18 38.6350 18.6180 115° Southeast 527 975 37.000  Level FlightAware ADS-B
Sat 05:22:56 38.5940 18.7270 116° Southeast 529 980 37.000  Level FlightAware ADS-B
Sat 05:23:28 38.5610 18.8150 116° Southeast 530 982 37.000  Level FlightAware ADS-B
Sat 05:24:04 38.5260 18.9140 114° Southeast 531 983 37.000  Level FlightAware ADS-B
Sat 05:24:39 38.4930 19.0190 112° Southeast 532 985 37.000  Level FlightAware ADS-B
Sat 05:25:14 38.4620 19.1200 111° Southeast 533 987 37.000  Level FlightAware ADS-B
Sat 05:25:54 38.4260 19.2380 111° Southeast 533 987 37.000  Level FlightAware ADS-B
Sat 05:26:29 38.3950 19.3390 111° Southeast 533 987 37.000  Level FlightAware ADS-B
Sat 05:27:04 38.3640 19.4430 111° Southeast 534 990 37.000  Level FlightAware ADS-B
Sat 05:27:39 38.3330 19.5430 112° Southeast 534 990 37.000  Level FlightAware ADS-B
Sat 05:28:14 38.3010 19.6470 111° Southeast 533 987 37.000  Level FlightAware ADS-B
Sat 05:28:49 38.2700 19.7490 111° Southeast 533 987 37.000  Level FlightAware ADS-B
Sat 05:29:24 38.2380 19.8520 112° Southeast 533 987 37.000  Level FlightAware ADS-B
Sat 05:29:59 38.2060 19.9530 112° Southeast 533 987 37.000  Level FlightAware ADS-B
Sat 05:30:34 38.1740 20.0550 112° Southeast 534 990 37.000  Level FlightAware ADS-B
Sat 05:31:10 38.1410 20.1590 112° Southeast 535 991 37.000  Level FlightAware ADS-B
Sat 05:31:50 38.1040 20.2770 112° Southeast 533 987 37.000  Level FlightAware ADS-B
Sat 05:32:25 38.0720 20.3780 112° Southeast 533 987 37.000  Level FlightAware ADS-B
Sat 05:33:00 38.0390 20.4820 112° Southeast 534 990 37.000  Level FlightAware ADS-B
Sat 05:33:40 38.0030 20.5960 112° Southeast 535 991 37.000  Level FlightAware ADS-B
Sat 05:34:10 37.9740 20.6870 112° Southeast 535 991 37.000  Level FlightAware ADS-B
Sat 05:34:45 37.9420 20.7870 112° Southeast 535 991 37.000  Level FlightAware ADS-B
Sat 05:35:21 37.9100 20.8900 111° Southeast 534 990 37.000  Level FlightAware ADS-B
Sat 05:36:00 37.8730 21.0050 112° Southeast 533 987 37.000  Level FlightAware ADS-B
Sat 05:36:30 37.8440 21.0940 112° Southeast 534 990 37.000  Level FlightAware ADS-B
Sat 05:37:10 37.8100 21.2010 112° Southeast 537 995 37.000  Level FlightAware ADS-B
Sat 05:37:42 37.7770 21.2980 113° Southeast 537 995 37.000  Level FlightAware ADS-B
Sat 05:38:17 37.7400 21.4070 113° Southeast 537 995 37.000  Level FlightAware ADS-B
Sat 05:38:54 37.7050 21.5120 113° Southeast 538 996 37.000  Level FlightAware ADS-B
Sat 05:39:29 37.6700 21.6150 113° Southeast 538 996 37.000  Level FlightAware ADS-B
Sat 05:39:59 37.6420 21.6980 113° Southeast 539 998 37.000  Level FlightAware ADS-B
Sat 05:40:38 37.6030 21.8130 113° Southeast 538 996 37.000  Level FlightAware ADS-B
Sat 05:41:14 37.5680 21.9160 113° Southeast 537 995 37.000  Level FlightAware ADS-B
Sat 05:41:49 37.5330 22.0190 113° Southeast 537 995 37.000  Level FlightAware ADS-B
Sat 05:42:21 37.5020 22.1100 113° Southeast 537 995 37.000  Level FlightAware ADS-B
Sat 05:42:57 37.4680 22.2110 113° Southeast 535 991 37.000  Level FlightAware ADS-B
Sat 05:43:31 37.4360 22.3060 113° Southeast 535 991 37.000  Level FlightAware ADS-B
Sat 05:44:10 37.3960 22.4230 113° Southeast 536 993 37.000  Level FlightAware ADS-B
Sat 05:44:42 37.3650 22.5150 113° Southeast 536 993 37.000  Level FlightAware ADS-B
Sat 05:45:18 37.3310 22.6160 113° Southeast 536 993 37.000  Level FlightAware ADS-B
Sat 05:45:49 37.3000 22.7080 113° Southeast 536 993 37.000  Level FlightAware ADS-B
Sat 05:46:26 37.2640 22.8140 113° Southeast 535 991 37.000  Level FlightAware ADS-B
Sat 05:47:04 37.2280 22.9200 113° Southeast 534 990 37.000  Level FlightAware ADS-B
Sat 05:47:36 37.1960 23.0110 114° Southeast 534 990 37.000  Level FlightAware ADS-B
Sat 05:48:13 37.1600 23.1160 113° Southeast 535 991 37.000  Level FlightAware ADS-B
Sat 05:48:49 37.1240 23.2180 114° Southeast 536 993 37.000  Level FlightAware ADS-B
Sat 05:49:22 37.0910 23.3140 113° Southeast 535 991 37.000  Level FlightAware ADS-B
Sat 05:49:58 37.0550 23.4160 114° Southeast 535 991 37.000  Level FlightAware ADS-B
Sat 05:50:32 37.0220 23.5110 113° Southeast 535 991 37.000  Level FlightAware ADS-B
Sat 05:51:07 36.9860 23.6110 114° Southeast 536 993 37.000  Level FlightAware ADS-B
Sat 05:51:44 36.9490 23.7160 114° Southeast 534 990 37.000  Level FlightAware ADS-B
Sat 05:52:19 36.9140 23.8150 114° Southeast 533 987 37.000  Level FlightAware ADS-B
Sat 05:52:51 36.8810 23.9050 115° Southeast 533 987 37.000  Level FlightAware ADS-B
Sat 05:53:30 36.8430 24.0140 114° Southeast 532 985 37.000  Level FlightAware ADS-B
Sat 05:54:02 36.8110 24.1040 114° Southeast 530 982 37.000  Level FlightAware ADS-B
Sat 05:54:37 36.7770 24.2030 113° Southeast 529 980 37.000  Level FlightAware ADS-B
Sat 05:55:12 36.7420 24.3000 114° Southeast 530 982 37.000  Level FlightAware ADS-B
Sat 05:55:48 36.7060 24.4010 114° Southeast 531 983 37.000  Level FlightAware ADS-B
Sat 05:56:21 36.6730 24.4920 114° Southeast 531 983 37.000  Level FlightAware ADS-B
Sat 05:56:58 36.6360 24.5960 114° Southeast 531 983 37.000  Level FlightAware ADS-B
Sat 05:57:34 36.5990 24.6970 115° Southeast 531 983 37.000  Level FlightAware ADS-B
Sat 05:58:10 36.5630 24.7970 114° Southeast 532 985 37.000  Level FlightAware ADS-B
Sat 05:58:42 36.5310 24.8850 114° Southeast 532 985 37.000  Level FlightAware ADS-B
Sat 05:59:18 36.4940 24.9870 114° Southeast 531 983 37.000  Level FlightAware ADS-B
Sat 05:59:52 36.4600 25.0800 114° Southeast 531 983 37.000  Level FlightAware ADS-B
Sat 06:00:28 36.4230 25.1800 115° Southeast 530 982 37.000  Level FlightAware ADS-B
Sat 06:01:04 36.3880 25.2780 114° Southeast 529 980 37.000  Level FlightAware ADS-B
Sat 06:01:34 36.3570 25.3630 114° Southeast 528 978 37.000  Level FlightAware ADS-B
Sat 06:02:14 36.3160 25.4730 115° Southeast 525 972 37.000  Level FlightAware ADS-B
Sat 06:02:50 36.2800 25.5720 114° Southeast 525 972 37.000  Level FlightAware ADS-B
Sat 06:03:22 36.2480 25.6600 114° Southeast 524 970 37.000  Level FlightAware ADS-B
Sat 06:03:58 36.2120 25.7570 115° Southeast 523 969 37.000  Level FlightAware ADS-B
Sat 06:04:32 36.1770 25.8510 115° Southeast 522 967 37.000  Level FlightAware ADS-B
Sat 06:05:05 36.1440 25.9380 115° Southeast 521 966 37.000  Level FlightAware ADS-B
Sat 06:05:44 36.1050 26.0440 114° Southeast 520 962 37.000  Level FlightAware ADS-B
Sat 06:06:16 36.0720 26.1310 115° Southeast 520 962 37.000  Level FlightAware ADS-B
Sat 06:06:52 36.0360 26.2280 115° Southeast 519 961 37.000  Level FlightAware ADS-B
Sat 06:07:28 35.9990 26.3270 115° Southeast 518 959 37.000  Level FlightAware ADS-B
Sat 06:08:04 35.9640 26.4200 115° Southeast 517 958 37.000  Level FlightAware ADS-B
Sat 06:08:36 35.9310 26.5080 115° Southeast 519 961 37.000  Level FlightAware ADS-B
Sat 06:09:12 35.8950 26.6040 115° Southeast 519 961 37.000  Level FlightAware ADS-B
Sat 06:09:48 35.8580 26.7000 115° Southeast 519 961 37.000  Level FlightAware ADS-B
Sat 06:10:24 35.8210 26.7990 115° Southeast 519 961 37.000  Level FlightAware ADS-B
Sat 06:11:07 35.7840 26.8970 115° Southeast 519 961 37.000  Level FlightAware ADS-B
Sat 06:11:38 35.7470 26.9920 116° Southeast 521 966 37.000  Level FlightAware ADS-B
Sat 06:12:18 35.7130 27.0840 114° Southeast 521 966 37.000  Level FlightAware ADS-B
Sat 06:12:50 35.6720 27.1890 116° Southeast 525 972 37.000  Level FlightAware ADS-B
Sat 06:13:24 35.6360 27.2820 115° Southeast 527 975 37.000  Level FlightAware ADS-B
Sat 06:14:02 35.5960 27.3870 115° Southeast 529 980 37.000  Level FlightAware ADS-B
Sat 06:14:34 35.5640 27.4720 115° Southeast 531 983 37.000  Level FlightAware ADS-B
Sat 06:15:08 35.5280 27.5660 115° Southeast 533 987 37.000  Level FlightAware ADS-B
Sat 06:15:46 35.4890 27.6660 116° Southeast 536 993 37.000  Level FlightAware ADS-B
Sat 06:16:18 35.4530 27.7570 116° Southeast 539 998 37.000  Level FlightAware ADS-B
Sat 06:16:54 35.4150 27.8570 115° Southeast 541 1003 37.000  Level FlightAware ADS-B
Sat 06:17:30 35.3760 27.9570 116° Southeast 543 1006 37.000  Level FlightAware ADS-B
Sat 06:18:04 35.3410 28.0460 116° Southeast 545 1009 37.000  Level FlightAware ADS-B
Sat 06:18:38 35.3030 28.1440 115° Southeast 548 1015 37.000  Level FlightAware ADS-B
Sat 06:19:14 35.2630 28.2460 116° Southeast 551 1020 37.000  Level FlightAware ADS-B
Sat 06:20:00 35.2180 28.3620 115° Southeast 553 1024 37.000  Level FlightAware ADS-B
Sat 06:20:30 35.1770 28.4620 117° Southeast 553 1024 37.000  Level FlightAware ADS-B
Sat 06:21:08 35.1340 28.5690 116° Southeast 553 1024 37.000  Level FlightAware ADS-B
Sat 06:21:40 35.1000 28.6550 116° Southeast 554 1027 37.000  Level FlightAware ADS-B
Sat 06:22:17 35.0590 28.7570 116° Southeast 554 1027 37.000  Level FlightAware ADS-B
Sat 06:22:53 35.0200 28.8530 116° Southeast 555 1028 37.000  Level FlightAware ADS-B
Sat 06:23:32 34.9730 28.9710 116° Southeast 554 1027 37.000  Level FlightAware ADS-B
Sat 06:24:06 34.9330 29.0690 116° Southeast 555 1028 37.000  Level FlightAware ADS-B
Sat 06:24:42 34.8940 29.1660 116° Southeast 554 1027 37.000  Level FlightAware ADS-B
Sat 06:25:20 34.8500 29.2740 116° Southeast 555 1028 37.000  Level FlightAware ADS-B
Sat 06:25:56 34.8090 29.3760 116° Southeast 556 1030 37.000  Level FlightAware ADS-B
Sat 06:26:29 34.7770 29.4540 117° Southeast 556 1030 37.000  Level FlightAware ADS-B
Sat 06:27:04 34.7330 29.5630 116° Southeast 558 1033 37.000  Level FlightAware ADS-B
Sat 06:27:40 34.6900 29.6660 117° Southeast 555 1028 37.000  Level FlightAware ADS-B
Sat 06:28:10 34.6580 29.7440 116° Southeast 556 1030 37.000  Level FlightAware ADS-B
Sat 06:29:00 34.6020 29.8810 116° Southeast 555 1028 37.000  Level FlightAware ADS-B
Sat 06:29:50 34.5520 30.0060 116° Southeast 554 1027 37.000  Level FlightAware ADS-B
Sat 06:30:26 34.5190 30.0920 115° Southeast 554 1027 37.000  Level FlightAware ADS-B
Sat 06:31:05 34.4470 30.2340 122° Southeast 551 1020 37.000  Level FlightAware ADS-B
Sat 06:31:41 34.4010 30.3310 120° Southeast 551 1020 37.000  Level FlightAware ADS-B
Sat 06:32:18 34.3580 30.4230 119° Southeast 550 1019 37.000  Level FlightAware ADS-B
Sat 06:32:52 34.3140 30.5170 120° Southeast 549 1017 37.000  Level FlightAware ADS-B
Sat 06:33:27 34.2690 30.6110 120° Southeast 536 993 37.000  Level FlightAware ADS-B
Sat 06:34:02 34.2270 30.6990 120° Southeast 530 982 37.000  Level FlightAware ADS-B
Sat 06:34:37 34.1830 30.7910 120° Southeast 529 980 37.000  Level FlightAware ADS-B
Sat 06:35:13 34.1400 30.8810 120° Southeast 527 975 37.000  Level FlightAware ADS-B
Sat 06:35:48 34.0990 30.9660 120° Southeast 526 974 37.000  Level FlightAware ADS-B
Sat 06:36:23 34.0520 31.0630 120° Southeast 526 974 37.000  Level FlightAware ADS-B
Sat 06:36:58 34.0080 31.1540 120° Southeast 524 970 37.000  Level FlightAware ADS-B
Sat 06:37:39 33.9620 31.2490 120° Southeast 524 970 37.000  Level FlightAware ADS-B
Sat 06:38:14 33.9150 31.3450 121° Southeast 525 972 37.000  Level FlightAware ADS-B
Sat 06:38:50 33.8710 31.4370 120° Southeast 525 972 37.000  Level FlightAware ADS-B
Sat 06:39:25 33.8300 31.5200 121° Southeast 526 974 37.000  Level FlightAware ADS-B
Sat 06:40:00 33.7830 31.6150 121° Southeast 531 983 37.000  Level FlightAware ADS-B
Sat 06:40:35 33.7370 31.7060 121° Southeast 531 983 37.000  Level FlightAware ADS-B
Sat 06:41:16 33.6870 31.8070 121° Southeast 532 985 37.000  Level FlightAware ADS-B
Sat 06:41:51 33.6410 31.8990 121° Southeast 528 978 37.000  Level FlightAware ADS-B
Sat 06:42:26 33.6000 31.9840 120° Southeast 528 978 37.000  Level FlightAware ADS-B
Sat 06:43:01 33.5550 32.0760 120° Southeast 526 974 37.000  Level FlightAware ADS-B
Sat 06:43:37 33.5110 32.1640 121° Southeast 525 972 37.000  Level FlightAware ADS-B
Sat 06:44:12 33.4660 32.2550 121° Southeast 524 970 37.000  Level FlightAware ADS-B
Sat 06:44:47 33.4230 32.3420 121° Southeast 527 975 37.000  Level FlightAware ADS-B
Sat 06:45:22 33.3840 32.4190 121° Southeast 527 975 37.000 -171 Level FlightAware ADS-B
Sat 06:45:57 33.3350 32.5150 121° Southeast 525 972 36.800 -771 Descending FlightAware ADS-B
Sat 06:46:32 33.2940 32.5960 121° Southeast 526 974 36.100 -1.352 Descending FlightAware ADS-B
Sat 06:47:08 33.2450 32.6920 121° Southeast 528 978 35.200 -1.944 Descending FlightAware ADS-B
Sat 06:47:43 33.2060 32.7680 122° Southeast 527 975 33.800 -2.535 Descending FlightAware ADS-B
Sat 06:48:19 33.1540 32.8690 122° Southeast 530 982 32.200 -2.328 Descending FlightAware ADS-B
Sat 06:48:50 33.1160 32.9420 122° Southeast 510 945 31.200 -845 Descending FlightAware ADS-B
Sat 06:49:30 33.0750 33.0240 121° Southeast 510 945 31.200 -2.240 Level FlightAware ADS-B
Sat 06:50:05 33.0230 33.1210 123° Southeast 488 904 28.400 -2.643 Descending FlightAware ADS-B
Sat 06:50:54 32.9690 33.2250 122° Southeast 482 893 27.500 -2.071 Descending FlightAware ADS-B
Sat 06:51:29 32.9260 33.3060 122° Southeast 442 819 25.500 -2.776 Descending FlightAware ADS-B
Sat 06:52:01 32.8910 33.3710 123° Southeast 433 801 24.400 -2.000 Descending FlightAware ADS-B
Sat 06:52:41 32.8500 33.4500 122° Southeast 425 787 23.100 -1.917 Descending FlightAware ADS-B
Sat 06:53:13 32.8160 33.5140 122° Southeast 417 772 22.100 -1.853 Descending FlightAware ADS-B
Sat 06:53:49 32.7810 33.5820 121° Southeast 409 758 21.000 -1.808 Descending FlightAware ADS-B
Sat 06:54:26 32.7430 33.6530 122° Southeast 402 745 19.900 -1.826 Descending FlightAware ADS-B
Sat 06:54:58 32.7110 33.7150 122° Southeast 395 732 18.900 -1.765 Descending FlightAware ADS-B
Sat 06:55:34 32.6760 33.7800 123° Southeast 388 719 17.900 -1.690 Descending FlightAware ADS-B
Sat 06:56:09 32.6440 33.8410 122° Southeast 372 689 16.900 -1.583 Descending FlightAware ADS-B
Sat 06:56:46 32.6100 33.9030 123° Southeast 348 644 16.000 -1.412 Descending FlightAware ADS-B
Sat 06:57:17 32.5830 33.9520 123° Southeast 343 636 15.300 -1.433 Descending FlightAware ADS-B
Sat 06:57:53 32.5530 34.0090 122° Southeast 336 623 14.400 -1.378 Descending FlightAware ADS-B
Sat 06:58:31 32.5190 34.0650 126° Southeast 328 607 13.600 -1.250 Descending FlightAware ADS-B
Sat 06:59:05 32.4870 34.1100 130° Southeast 320 592 12.900 -1.304 Descending FlightAware ADS-B
Sat 06:59:40 32.4510 34.1560 133° Southeast 311 576 12.100 -1.235 Descending FlightAware ADS-B
Sat 07:00:13 32.4180 34.1960 134° Southeast 306 566 11.500 -1.130 Descending FlightAware ADS-B
Sat 07:00:49 32.3820 34.2380 135° Southeast 322 597 10.800 -1.250 Descending FlightAware ADS-B
Sat 07:01:25 32.3440 34.2860 133° Southeast 317 587 10.000 -1.333 Descending FlightAware ADS-B
Sat 07:01:43 32.3260 34.3090 133° Southeast 309 573 9.600 -1.200 Descending FlightAware ADS-B
Sat 07:02:05 32.3050 34.3360 133° Southeast 298 552 9.200 -1.174 Descending FlightAware ADS-B
Sat 07:02:29 32.2850 34.3630 131° Southeast 287 531 8.700 -632 Descending FlightAware ADS-B
Sat 07:03:02 32.2590 34.3980 131° Southeast 290 538 8.600 -105 Descending FlightAware ADS-B
Sat 07:03:26 32.2420 34.4220 130° Southeast 290 538 8.600  Level FlightAware ADS-B
Sat 07:03:50 32.2240 34.4470 130° Southeast 290 538 8.600  Level FlightAware ADS-B
Sat 07:04:14 32.2060 34.4710 132° Southeast 290 538 8.600  Level FlightAware ADS-B
Sat 07:06:00 32.0838 34.7270 125° Southeast  Level FlightAware Approximate
Sat 07:07:00 32.0017 34.8639 125° Southeast  Level FlightAware Approximate
Sat 07:08:00 32.0000 34.8667 125° Southeast  Level FlightAware Approximate
Sat 07:09:00 32.0095 34.8769 125° Southeast  Level Estimated
Sat 07:10:00 32.0095 34.8769 125° Southeast  Level Estimated
Sat 07:11:00 32.0095 34.8769 125° Southeast  Level Estimated
Sat 07:12:00 32.0095 34.8769 125° Southeast  Level Estimated
Sat 07:13:00 32.0095 34.8769 125° Southeast  Level Estimated
Sat 07:14:00 32.0095 34.8769 125° Southeast  Level Estimated
Sat 07:15:00 32.0095 34.8769 125° Southeast  Level Estimated

Login

Don't have an account? Register now (free) for customized features, flight alerts, and more!